createdAt,value
2019-02-24T00:00:52.995Z,46.40
2019-02-24T00:01:52.983Z,52.20
2019-02-24T00:02:52.972Z,44.29
2019-02-24T00:03:54.686Z,48.90
2019-02-24T00:04:52.946Z,49.09
2019-02-24T00:05:52.940Z,47.79
2019-02-24T00:06:52.929Z,39.70
2019-02-24T00:07:52.917Z,49.20
2019-02-24T00:08:52.906Z,47.59
2019-02-24T00:09:52.893Z,47.79
2019-02-24T00:10:52.885Z,40.70
2019-02-24T00:11:52.882Z,33.09
2019-02-24T00:16:52.819Z,42.70
2019-02-24T00:17:52.807Z,35.00
2019-02-24T00:18:52.800Z,35.09
2019-02-24T00:19:52.789Z,31.70
2019-02-24T00:20:52.775Z,31.39
2019-02-24T00:21:52.765Z,34.70
2019-02-24T00:39:52.971Z,41.20
2019-02-24T00:48:52.472Z,42.29
2019-02-24T00:49:52.461Z,39.20
2019-02-24T00:50:52.453Z,46.50
2019-02-24T00:51:52.442Z,44.20
2019-02-24T00:52:52.434Z,43.29
2019-02-24T00:53:52.418Z,41.09
2019-02-24T00:54:52.411Z,40.29
2019-02-24T00:55:52.397Z,43.40
2019-02-24T00:56:52.390Z,50.90
2019-02-24T00:57:52.376Z,51.00
2019-02-24T00:58:52.366Z,38.59
2019-02-24T00:59:52.355Z,37.70
2019-02-24T01:00:52.346Z,50.59
2019-02-24T01:01:52.333Z,35.20
2019-02-24T01:02:52.372Z,51.20
2019-02-24T01:03:52.311Z,47.50
2019-02-24T01:04:52.301Z,51.00
2019-02-24T01:05:52.291Z,47.79
2019-02-24T01:06:52.276Z,51.20
2019-02-24T01:07:52.266Z,50.50
2019-02-24T01:08:52.257Z,43.40
2019-02-24T01:09:52.348Z,42.29
2019-02-24T01:10:52.235Z,37.90
2019-02-24T01:11:52.223Z,45.90
2019-02-24T01:12:52.214Z,43.50
2019-02-24T01:13:53.977Z,43.00
2019-02-24T01:14:52.191Z,40.29
2019-02-24T01:15:52.181Z,40.50
2019-02-24T01:16:52.179Z,46.50
2019-02-24T01:17:52.159Z,47.40
2019-02-24T01:18:52.146Z,47.29
2019-02-24T01:19:52.134Z,44.90
2019-02-24T01:20:52.126Z,51.59
2019-02-24T01:21:52.118Z,42.59
2019-02-24T01:22:52.106Z,45.59
2019-02-24T01:23:52.095Z,37.09
2019-02-24T01:24:52.085Z,37.20
2019-02-24T01:25:52.072Z,40.79
2019-02-24T01:26:52.059Z,41.70
2019-02-24T01:27:52.052Z,48.20
2019-02-24T01:28:52.041Z,45.20
2019-02-24T01:29:52.030Z,36.20
2019-02-24T01:31:52.005Z,31.00
2019-02-24T01:33:51.986Z,40.70
2019-02-24T01:34:51.980Z,43.40
2019-02-24T01:35:52.066Z,42.90
2019-02-24T01:44:51.870Z,35.40
2019-02-24T01:45:51.858Z,35.70
2019-02-24T01:47:51.837Z,36.09
2019-02-24T01:48:51.826Z,31.10
2019-02-24T01:49:51.816Z,35.00
2019-02-24T01:50:51.803Z,40.90
2019-02-24T01:51:51.793Z,44.79
2019-02-24T01:52:51.779Z,45.09
2019-02-24T01:53:51.771Z,57.40
2019-02-24T01:54:51.761Z,47.40
2019-02-24T01:55:51.751Z,45.90
2019-02-24T01:56:51.737Z,43.29
2019-02-24T01:57:51.729Z,37.20
2019-02-24T01:58:51.716Z,42.90
2019-02-24T01:59:51.707Z,40.40
2019-02-24T02:00:51.702Z,46.40
2019-02-24T02:01:51.685Z,37.79
2019-02-24T02:02:51.676Z,36.79
2019-02-24T02:03:51.667Z,48.79
2019-02-24T02:04:51.651Z,45.40
2019-02-24T02:05:51.643Z,40.40
2019-02-24T02:06:51.633Z,49.40
2019-02-24T02:07:51.618Z,48.20
2019-02-24T02:08:51.612Z,52.79
2019-02-24T02:09:51.597Z,52.90
2019-02-24T02:10:51.588Z,49.40
2019-02-24T02:11:51.580Z,55.79
2019-02-24T02:12:51.569Z,53.00
2019-02-24T02:13:51.699Z,64.90
2019-02-24T02:14:51.549Z,50.70
2019-02-24T02:15:51.535Z,63.90
2019-02-24T02:16:51.524Z,74.90
2019-02-24T02:17:51.516Z,59.59
2019-02-24T02:18:51.503Z,49.40
2019-02-24T02:19:51.494Z,65.00
2019-02-24T02:20:51.480Z,61.09
2019-02-24T02:21:51.469Z,62.59
2019-02-24T02:22:51.460Z,60.40
2019-02-24T02:23:51.446Z,62.70
2019-02-24T02:24:51.437Z,63.90
2019-02-24T02:25:51.425Z,56.70
2019-02-24T02:26:51.413Z,59.20
2019-02-24T02:27:51.405Z,57.90
2019-02-24T02:28:51.401Z,47.79
2019-02-24T02:29:51.386Z,51.79
2019-02-24T02:30:51.374Z,57.79
2019-02-24T02:31:51.365Z,58.00
2019-02-24T02:32:51.356Z,60.90
2019-02-24T02:33:51.341Z,71.19
2019-02-24T02:34:51.330Z,72.69
2019-02-24T02:35:51.422Z,62.40
2019-02-24T02:36:51.412Z,59.70
2019-02-24T02:37:51.298Z,72.80
2019-02-24T02:38:51.289Z,68.80
2019-02-24T02:39:51.276Z,59.29
2019-02-24T02:40:51.266Z,64.40
2019-02-24T02:41:51.258Z,65.69
2019-02-24T02:42:51.244Z,58.40
2019-02-24T02:43:51.234Z,50.20
2019-02-24T02:44:51.223Z,51.50
2019-02-24T02:45:51.209Z,51.90
2019-02-24T02:46:51.207Z,48.09
2019-02-24T02:47:51.206Z,47.50
2019-02-24T02:48:51.178Z,46.70
2019-02-24T02:49:51.167Z,48.79
2019-02-24T02:50:51.156Z,51.09
2019-02-24T02:51:51.148Z,59.90
2019-02-24T02:52:51.138Z,56.20
2019-02-24T02:53:51.126Z,53.00
2019-02-24T02:54:51.115Z,50.90
2019-02-24T02:55:51.101Z,51.20
2019-02-24T02:56:51.097Z,48.29
2019-02-24T02:57:51.185Z,53.90
2019-02-24T02:58:54.352Z,61.70
2019-02-24T02:59:51.162Z,60.20
2019-02-24T03:00:51.050Z,55.70
2019-02-24T03:01:51.039Z,54.40
2019-02-24T03:02:51.028Z,50.00
2019-02-24T03:03:51.017Z,59.79
2019-02-24T03:04:51.007Z,54.59
2019-02-24T03:05:50.993Z,66.30
2019-02-24T03:06:50.987Z,54.50
2019-02-24T03:07:50.973Z,55.79
2019-02-24T03:08:50.964Z,52.20
2019-02-24T03:09:50.953Z,48.20
2019-02-24T03:10:50.944Z,51.70
2019-02-24T03:11:51.031Z,64.90
2019-02-24T03:12:50.923Z,50.70
2019-02-24T03:13:50.918Z,42.90
2019-02-24T03:14:50.899Z,58.40
2019-02-24T03:15:50.888Z,53.29
2019-02-24T03:16:50.930Z,49.59
2019-02-24T03:17:50.865Z,48.70
2019-02-24T03:18:50.855Z,44.59
2019-02-24T03:19:50.845Z,48.50
2019-02-24T03:20:50.833Z,54.20
2019-02-24T03:21:50.823Z,53.09
2019-02-24T03:22:50.817Z,51.79
2019-02-24T03:23:50.805Z,45.70
2019-02-24T03:24:50.792Z,51.70
2019-02-24T03:25:50.779Z,50.20
2019-02-24T03:26:50.768Z,52.50
2019-02-24T03:27:50.760Z,50.00
2019-02-24T03:28:50.748Z,52.40
2019-02-24T03:29:50.739Z,63.50
2019-02-24T03:30:50.788Z,56.70
2019-02-24T03:31:50.719Z,63.29
2019-02-24T03:32:50.706Z,52.40
2019-02-24T03:33:50.695Z,56.00
2019-02-24T03:34:50.680Z,54.50
2019-02-24T03:35:50.672Z,60.29
2019-02-24T03:36:50.961Z,66.90
2019-02-24T03:37:50.653Z,63.50
2019-02-24T03:38:50.640Z,61.09
2019-02-24T03:39:50.632Z,61.79
2019-02-24T03:40:50.617Z,65.69
2019-02-24T03:41:50.605Z,50.50
2019-02-24T03:42:50.600Z,47.79
2019-02-24T03:43:50.582Z,54.70
2019-02-24T03:44:50.624Z,50.50
2019-02-24T03:45:50.563Z,64.19
2019-02-24T03:46:50.564Z,65.50
2019-02-24T03:47:50.545Z,63.90
2019-02-24T03:48:50.530Z,55.09
2019-02-24T03:49:50.521Z,63.20
2019-02-24T03:50:50.546Z,58.50
2019-02-24T03:51:50.498Z,62.20
2019-02-24T03:52:50.489Z,66.09
2019-02-24T03:53:50.475Z,67.69
2019-02-24T03:54:50.473Z,66.69
2019-02-24T03:55:50.460Z,70.90
2019-02-24T03:56:50.442Z,66.90
2019-02-24T03:57:50.431Z,52.29
2019-02-24T03:58:50.420Z,51.59
2019-02-24T03:59:50.423Z,43.79
2019-02-24T04:00:50.397Z,54.79
2019-02-24T04:01:50.394Z,49.70
2019-02-24T04:02:50.382Z,45.09
2019-02-24T04:03:50.369Z,54.50
2019-02-24T04:04:50.353Z,60.70
2019-02-24T04:05:50.345Z,53.50
2019-02-24T04:06:50.333Z,59.09
2019-02-24T04:07:50.323Z,61.40
2019-02-24T04:08:50.308Z,70.19
2019-02-24T04:09:50.298Z,80.30
2019-02-24T04:10:50.294Z,77.59
2019-02-24T04:11:50.275Z,78.09
2019-02-24T04:12:50.266Z,77.30
2019-02-24T04:13:50.253Z,70.69
2019-02-24T04:14:50.246Z,79.69
2019-02-24T04:15:50.233Z,69.30
2019-02-24T04:16:50.228Z,77.40
2019-02-24T04:17:50.210Z,75.40
2019-02-24T04:18:50.207Z,79.90
2019-02-24T04:19:50.189Z,77.59
2019-02-24T04:20:50.177Z,65.09
2019-02-24T04:21:50.166Z,57.29
2019-02-24T04:22:50.156Z,66.09
2019-02-24T04:23:50.145Z,71.80
2019-02-24T04:24:50.142Z,66.90
2019-02-24T04:25:50.131Z,68.00
2019-02-24T04:26:50.114Z,71.69
2019-02-24T04:27:50.109Z,59.09
2019-02-24T04:28:50.093Z,65.09
2019-02-24T04:29:50.081Z,56.29
2019-02-24T04:30:50.078Z,56.29
2019-02-24T04:31:50.160Z,68.50
2019-02-24T04:32:50.053Z,66.09
2019-02-24T04:33:50.043Z,59.50
2019-02-24T04:34:50.026Z,62.79
2019-02-24T04:35:50.027Z,57.00
2019-02-24T04:36:50.008Z,66.90
2019-02-24T04:37:50.102Z,67.59
2019-02-24T04:38:49.988Z,82.09
2019-02-24T04:39:49.979Z,69.69
2019-02-24T04:40:49.969Z,70.09
2019-02-24T04:41:49.956Z,74.30
2019-02-24T04:42:49.942Z,64.19
2019-02-24T04:43:49.933Z,62.20
2019-02-24T04:44:49.920Z,58.40
2019-02-24T04:45:49.913Z,57.40
2019-02-24T04:46:49.906Z,56.29
2019-02-24T04:47:49.890Z,67.69
2019-02-24T04:48:49.881Z,67.30
2019-02-24T04:49:49.870Z,66.00
2019-02-24T04:50:49.859Z,63.40
2019-02-24T04:51:49.851Z,77.50
2019-02-24T04:52:49.841Z,79.19
2019-02-24T04:53:49.831Z,69.30
2019-02-24T04:54:49.818Z,63.59
2019-02-24T04:55:49.808Z,67.59
2019-02-24T04:56:49.800Z,66.80
2019-02-24T04:57:49.785Z,68.30
2019-02-24T04:58:49.778Z,62.70
2019-02-24T04:59:49.763Z,73.90
2019-02-24T05:00:49.752Z,75.30
2019-02-24T05:01:49.746Z,71.09
2019-02-24T05:02:49.732Z,81.50
2019-02-24T05:03:49.721Z,84.30
2019-02-24T05:04:49.716Z,65.90
2019-02-24T05:05:49.700Z,78.90
2019-02-24T05:06:49.688Z,76.90
2019-02-24T05:07:49.693Z,80.19
2019-02-24T05:08:49.671Z,89.09
2019-02-24T05:09:49.654Z,88.19
2019-02-24T05:10:49.643Z,86.19
2019-02-24T05:11:49.634Z,105.80
2019-02-24T05:12:49.622Z,98.19
2019-02-24T05:13:49.615Z,90.69
2019-02-24T05:14:49.602Z,94.09
2019-02-24T05:15:49.596Z,94.19
2019-02-24T05:16:49.584Z,90.50
2019-02-24T05:17:49.575Z,85.90
2019-02-24T05:18:49.574Z,95.09
2019-02-24T05:19:49.558Z,114.30
2019-02-24T05:20:49.537Z,104.80
2019-02-24T05:21:49.527Z,99.40
2019-02-24T05:22:49.514Z,119.90
2019-02-24T05:23:49.506Z,110.40
2019-02-24T05:24:49.493Z,116.40
2019-02-24T05:25:49.484Z,126.19
2019-02-24T05:26:49.477Z,112.19
2019-02-24T05:27:49.472Z,123.50
2019-02-24T05:28:49.451Z,112.80
2019-02-24T05:29:49.449Z,118.69
2019-02-24T05:30:49.434Z,127.90
2019-02-24T05:31:49.417Z,124.59
2019-02-24T05:32:49.662Z,109.80
2019-02-24T05:33:49.404Z,112.59
2019-02-24T05:34:49.400Z,114.09
2019-02-24T05:35:49.375Z,125.00
2019-02-24T05:36:49.370Z,114.00
2019-02-24T05:37:49.353Z,115.59
2019-02-24T05:38:49.350Z,130.30
2019-02-24T05:39:49.334Z,119.80
2019-02-24T05:40:49.323Z,129.80
2019-02-24T05:41:49.311Z,136.39
2019-02-24T05:42:49.298Z,123.69
2019-02-24T05:43:49.293Z,120.59
2019-02-24T05:44:49.276Z,137.00
2019-02-24T05:45:49.267Z,114.80
2019-02-24T05:46:49.261Z,122.00
2019-02-24T05:47:49.253Z,122.80
2019-02-24T05:48:49.238Z,110.00
2019-02-24T05:49:49.225Z,114.19
2019-02-24T05:50:49.212Z,105.00
2019-02-24T05:51:49.207Z,125.00
2019-02-24T05:52:49.195Z,122.59
2019-02-24T05:53:49.178Z,142.50
2019-02-24T05:54:49.169Z,114.50
2019-02-24T05:55:49.158Z,120.90
2019-02-24T05:56:49.151Z,129.50
2019-02-24T05:57:49.136Z,100.50
2019-02-24T05:58:49.132Z,118.19
2019-02-24T05:59:55.367Z,122.69
2019-02-24T06:00:50.209Z,114.80
2019-02-24T06:01:49.095Z,125.50
2019-02-24T06:02:49.091Z,132.19
2019-02-24T06:03:49.072Z,120.90
2019-02-24T06:04:49.066Z,127.30
2019-02-24T06:05:49.053Z,122.80
2019-02-24T06:06:49.039Z,123.40
2019-02-24T06:07:49.028Z,109.09
2019-02-24T06:08:49.016Z,107.09
2019-02-24T06:09:49.036Z,110.40
2019-02-24T06:10:48.999Z,108.59
2019-02-24T06:11:48.986Z,110.50
2019-02-24T06:12:48.976Z,109.09
2019-02-24T06:13:48.964Z,103.69
2019-02-24T06:14:48.957Z,111.00
2019-02-24T06:15:48.950Z,104.59
2019-02-24T06:16:48.943Z,114.19
2019-02-24T06:17:48.922Z,105.80
2019-02-24T06:18:48.916Z,114.50
2019-02-24T06:19:48.902Z,112.59
2019-02-24T06:20:48.909Z,112.59
2019-02-24T06:21:48.884Z,119.90
2019-02-24T06:22:48.877Z,125.90
2019-02-24T06:23:48.858Z,132.10
2019-02-24T06:24:48.850Z,127.40
2019-02-24T06:25:48.837Z,134.69
2019-02-24T06:26:48.825Z,118.09
2019-02-24T06:27:48.812Z,126.09
2019-02-24T06:28:48.805Z,123.59
2019-02-24T06:29:48.794Z,114.90
2019-02-24T06:30:48.784Z,120.69
2019-02-24T06:31:48.797Z,132.89
2019-02-24T06:32:48.762Z,130.39
2019-02-24T06:33:49.058Z,123.40
2019-02-24T06:34:48.744Z,133.50
2019-02-24T06:35:48.730Z,141.60
2019-02-24T06:36:48.714Z,140.10
2019-02-24T06:37:48.709Z,139.50
2019-02-24T06:38:48.697Z,142.80
2019-02-24T06:39:48.685Z,149.30
2019-02-24T06:40:48.674Z,143.89
2019-02-24T06:41:48.663Z,141.19
2019-02-24T06:42:48.649Z,143.60
2019-02-24T06:43:48.644Z,148.30
2019-02-24T06:44:48.629Z,142.30
2019-02-24T06:45:48.618Z,132.60
2019-02-24T06:46:48.605Z,140.50
2019-02-24T06:47:48.598Z,147.30
2019-02-24T06:48:48.587Z,140.00
2019-02-24T06:49:48.575Z,139.39
2019-02-24T06:50:48.566Z,142.19
2019-02-24T06:51:48.551Z,134.39
2019-02-24T06:52:48.540Z,125.00
2019-02-24T06:53:48.534Z,137.50
2019-02-24T06:54:48.518Z,134.69
2019-02-24T06:55:48.507Z,118.00
2019-02-24T06:56:48.507Z,121.19
2019-02-24T06:57:48.491Z,114.40
2019-02-24T06:58:48.472Z,114.50
2019-02-24T06:59:48.465Z,114.90
2019-02-24T07:00:48.456Z,112.59
2019-02-24T07:01:48.440Z,113.90
2019-02-24T07:02:48.432Z,110.19
2019-02-24T07:03:48.418Z,113.50
2019-02-24T07:04:48.407Z,107.69
2019-02-24T07:05:48.399Z,104.90
2019-02-24T07:06:48.386Z,102.00
2019-02-24T07:07:48.376Z,106.59
2019-02-24T07:08:48.367Z,97.59
2019-02-24T07:09:48.452Z,104.19
2019-02-24T07:10:48.340Z,110.00
2019-02-24T07:11:48.342Z,115.90
2019-02-24T07:12:48.326Z,120.09
2019-02-24T07:13:48.318Z,112.69
2019-02-24T07:14:48.304Z,114.30
2019-02-24T07:15:48.287Z,105.59
2019-02-24T07:16:48.277Z,110.90
2019-02-24T07:17:48.264Z,107.50
2019-02-24T07:18:48.253Z,110.09
2019-02-24T07:19:48.240Z,112.00
2019-02-24T07:20:48.230Z,107.00
2019-02-24T07:21:48.224Z,110.69
2019-02-24T07:22:48.212Z,116.00
2019-02-24T07:23:48.201Z,111.69
2019-02-24T07:24:48.187Z,102.19
2019-02-24T07:25:48.176Z,111.90
2019-02-24T07:26:48.165Z,107.69
2019-02-24T07:27:48.151Z,106.30
2019-02-24T07:28:48.152Z,102.19
2019-02-24T07:29:48.132Z,107.59
2019-02-24T07:30:48.120Z,104.59
2019-02-24T07:31:48.110Z,94.59
2019-02-24T07:32:48.199Z,97.59
2019-02-24T07:33:48.094Z,95.59
2019-02-24T07:34:48.180Z,102.40
2019-02-24T07:35:48.171Z,100.40
2019-02-24T07:36:48.055Z,93.00
2019-02-24T07:37:48.055Z,92.80
2019-02-24T07:38:48.182Z,92.69
2019-02-24T07:39:48.021Z,97.90
2019-02-24T07:40:48.010Z,90.69
2019-02-24T07:41:47.998Z,90.50
2019-02-24T07:42:47.987Z,98.09
2019-02-24T07:43:47.977Z,95.30
2019-02-24T07:44:47.965Z,98.59
2019-02-24T07:45:47.953Z,89.80
2019-02-24T07:46:47.942Z,85.30
2019-02-24T07:47:47.930Z,89.00
2019-02-24T07:48:47.922Z,97.09
2019-02-24T07:49:47.913Z,83.19
2019-02-24T07:50:47.899Z,83.09
2019-02-24T07:51:47.887Z,87.09
2019-02-24T07:52:47.876Z,86.00
2019-02-24T07:53:47.867Z,89.09
2019-02-24T07:54:47.852Z,82.90
2019-02-24T07:55:47.845Z,81.00
2019-02-24T07:56:47.837Z,79.80
2019-02-24T07:57:47.821Z,80.59
2019-02-24T07:58:47.811Z,81.30
2019-02-24T07:59:47.798Z,85.69
2019-02-24T08:00:47.786Z,76.50
2019-02-24T08:01:47.777Z,71.40
2019-02-24T08:02:47.765Z,69.50
2019-02-24T08:03:47.758Z,72.80
2019-02-24T08:04:47.743Z,69.30
2019-02-24T08:05:47.733Z,75.40
2019-02-24T08:06:47.720Z,79.59
2019-02-24T08:07:47.712Z,73.00
2019-02-24T08:08:47.704Z,68.40
2019-02-24T08:09:47.689Z,66.50
2019-02-24T08:10:47.683Z,65.90
2019-02-24T08:11:47.668Z,66.59
2019-02-24T08:12:47.656Z,59.59
2019-02-24T08:13:47.644Z,70.80
2019-02-24T08:14:47.634Z,66.59
2019-02-24T08:15:47.624Z,64.09
2019-02-24T08:16:47.614Z,64.30
2019-02-24T08:17:47.602Z,64.50
2019-02-24T08:18:49.906Z,63.90
2019-02-24T08:19:47.582Z,62.90
2019-02-24T08:20:47.585Z,61.79
2019-02-24T08:21:47.560Z,57.00
2019-02-24T08:22:47.546Z,57.79
2019-02-24T08:23:47.539Z,57.50
2019-02-24T08:24:47.528Z,61.29
2019-02-24T08:25:47.514Z,58.50
2019-02-24T08:26:47.507Z,54.40
2019-02-24T08:27:47.494Z,55.90
2019-02-24T08:28:47.484Z,55.70
2019-02-24T08:29:47.471Z,59.70
2019-02-24T08:30:47.468Z,54.79
2019-02-24T08:31:47.447Z,57.29
2019-02-24T08:32:47.439Z,49.59
2019-02-24T08:33:47.581Z,51.00
2019-02-24T08:34:47.416Z,55.40
2019-02-24T08:35:47.614Z,58.09
2019-02-24T08:36:47.397Z,57.79
2019-02-24T08:37:47.387Z,60.90
2019-02-24T08:38:47.372Z,54.00
2019-02-24T08:39:47.363Z,54.79
2019-02-24T08:40:47.354Z,47.70
2019-02-24T08:41:47.342Z,41.79
2019-02-24T08:42:47.333Z,39.29
2019-02-24T08:43:47.321Z,42.50
2019-02-24T08:44:47.362Z,39.20
2019-02-24T08:45:47.300Z,36.29
2019-02-24T08:46:47.290Z,38.59
2019-02-24T08:47:47.280Z,34.20
2019-02-24T08:48:47.267Z,34.79
2019-02-24T08:49:47.256Z,39.29
2019-02-24T08:50:47.245Z,27.89
2019-02-24T08:51:47.232Z,24.10
2019-02-24T08:52:47.226Z,17.70
2019-02-24T08:53:47.218Z,20.60
2019-02-24T08:54:47.204Z,19.89
2019-02-24T08:55:47.194Z,19.50
2019-02-24T08:56:47.186Z,24.89
2019-02-24T08:57:47.271Z,25.60
2019-02-24T08:58:47.164Z,27.20
2019-02-24T08:59:47.253Z,24.60
2019-02-24T09:00:50.896Z,27.00
2019-02-24T09:01:47.125Z,25.50
2019-02-24T09:02:47.118Z,21.60
2019-02-24T09:03:47.104Z,14.30
2019-02-24T09:04:47.094Z,13.69
2019-02-24T09:05:47.083Z,18.29
2019-02-24T09:06:47.086Z,15.60
2019-02-24T09:07:47.070Z,14.80
2019-02-24T09:08:47.055Z,14.10
2019-02-24T09:09:47.041Z,15.89
2019-02-24T09:10:47.034Z,15.50
2019-02-24T09:11:47.029Z,18.50
2019-02-24T09:12:47.019Z,19.60
2019-02-24T09:13:46.998Z,21.10
2019-02-24T09:14:46.989Z,23.20
2019-02-24T09:15:46.977Z,21.39
2019-02-24T09:16:46.963Z,21.70
2019-02-24T09:17:46.954Z,23.79
2019-02-24T09:18:46.954Z,22.60
2019-02-24T09:19:46.936Z,19.00
2019-02-24T09:20:46.923Z,20.29
2019-02-24T09:21:46.921Z,19.50
2019-02-24T09:22:46.900Z,20.70
2019-02-24T09:23:46.896Z,17.10
2019-02-24T09:24:46.886Z,19.89
2019-02-24T09:25:46.866Z,16.79
2019-02-24T09:26:46.861Z,19.79
2019-02-24T09:27:46.842Z,19.00
2019-02-24T09:28:46.832Z,19.60
2019-02-24T09:29:46.829Z,16.60
2019-02-24T09:30:46.815Z,17.10
2019-02-24T09:31:46.802Z,14.69
2019-02-24T09:32:46.792Z,17.10
2019-02-24T09:33:46.781Z,20.70
2019-02-24T09:34:46.929Z,19.60
2019-02-24T09:35:46.758Z,19.10
2019-02-24T09:36:46.752Z,18.20
2019-02-24T09:37:46.737Z,17.00
2019-02-24T09:38:46.722Z,16.29
2019-02-24T09:39:46.713Z,14.30
2019-02-24T09:40:46.699Z,17.00
2019-02-24T09:41:46.690Z,14.69
2019-02-24T09:42:46.685Z,17.50
2019-02-24T09:43:46.670Z,18.20
2019-02-24T09:44:46.656Z,17.29
2019-02-24T09:45:46.645Z,18.60
2019-02-24T09:46:46.644Z,21.29
2019-02-24T09:47:47.300Z,21.20
2019-02-24T09:48:46.611Z,21.50
2019-02-24T09:49:46.612Z,19.00
2019-02-24T09:50:46.597Z,21.70
2019-02-24T09:51:46.582Z,28.00
2019-02-24T09:52:46.576Z,21.20
2019-02-24T09:53:46.557Z,24.20
2019-02-24T09:54:46.548Z,24.00
2019-02-24T09:55:46.537Z,25.00
2019-02-24T09:56:46.522Z,26.70
2019-02-24T09:57:46.516Z,24.20
2019-02-24T09:58:46.509Z,29.10
2019-02-24T09:59:46.490Z,25.50
2019-02-24T10:00:46.482Z,24.10
2019-02-24T10:01:46.473Z,29.39
2019-02-24T10:02:46.470Z,24.10
2019-02-24T10:03:46.455Z,26.39
2019-02-24T10:04:46.442Z,22.29
2019-02-24T10:05:46.435Z,22.70
2019-02-24T10:06:46.418Z,29.39
2019-02-24T10:07:46.405Z,29.39
2019-02-24T10:08:46.394Z,26.50
2019-02-24T10:09:46.382Z,32.00
2019-02-24T10:10:46.376Z,27.29
2019-02-24T10:11:46.363Z,25.79
2019-02-24T10:12:46.359Z,21.29
2019-02-24T10:13:46.337Z,25.70
2019-02-24T10:14:46.331Z,21.10
2019-02-24T10:15:46.316Z,19.70
2019-02-24T10:16:46.308Z,20.79
2019-02-24T10:17:46.303Z,16.89
2019-02-24T10:18:46.289Z,23.00
2019-02-24T10:19:46.274Z,18.89
2019-02-24T10:20:46.265Z,20.20
2019-02-24T10:21:46.248Z,19.20
2019-02-24T10:22:46.237Z,17.70
2019-02-24T10:23:46.227Z,25.20
2019-02-24T10:24:46.319Z,23.50
2019-02-24T10:25:46.210Z,24.20
2019-02-24T10:26:46.199Z,30.89
2019-02-24T10:27:46.186Z,34.70
2019-02-24T10:28:47.678Z,29.50
2019-02-24T10:29:46.162Z,30.39
2019-02-24T10:30:46.157Z,31.00
2019-02-24T10:31:46.146Z,37.59
2019-02-24T10:32:46.132Z,26.29
2019-02-24T10:33:46.117Z,30.89
2019-02-24T10:34:46.108Z,24.70
2019-02-24T10:35:46.209Z,26.50
2019-02-24T10:36:46.090Z,21.00
2019-02-24T10:37:46.078Z,20.79
2019-02-24T10:38:46.067Z,24.89
2019-02-24T10:39:46.053Z,19.89
2019-02-24T10:40:46.040Z,21.70
2019-02-24T10:41:46.033Z,20.00
2019-02-24T10:42:46.032Z,24.50
2019-02-24T10:43:46.017Z,21.79
2019-02-24T10:44:46.010Z,21.79
2019-02-24T10:45:45.992Z,19.00
2019-02-24T10:46:45.980Z,27.39
2019-02-24T10:47:45.972Z,25.29
2019-02-24T10:48:45.955Z,22.79
2019-02-24T10:49:45.945Z,18.39
2019-02-24T10:50:45.933Z,16.60
2019-02-24T10:51:45.923Z,15.00
2019-02-24T10:52:45.915Z,19.39
2019-02-24T10:53:45.903Z,13.89
2019-02-24T10:54:45.895Z,24.70
2019-02-24T10:55:45.878Z,19.60
2019-02-24T10:56:45.871Z,21.79
2019-02-24T10:57:45.860Z,22.60
2019-02-24T10:58:45.847Z,19.10
2019-02-24T10:59:45.840Z,27.39
2019-02-24T11:00:45.836Z,24.50
2019-02-24T11:01:45.825Z,14.89
2019-02-24T11:02:45.824Z,17.00
2019-02-24T11:03:45.805Z,19.60
2019-02-24T11:04:45.788Z,21.29
2019-02-24T11:05:45.776Z,21.89
2019-02-24T11:06:45.767Z,22.29
2019-02-24T11:07:45.755Z,14.80
2019-02-24T11:08:45.744Z,16.70
2019-02-24T11:09:45.739Z,20.60
2019-02-24T11:10:45.723Z,16.00
2019-02-24T11:11:45.718Z,17.20
2019-02-24T11:12:45.703Z,22.60
2019-02-24T11:13:45.708Z,19.29
2019-02-24T11:14:45.680Z,15.80
2019-02-24T11:15:45.676Z,17.79
2019-02-24T11:16:45.663Z,22.50
2019-02-24T11:17:45.654Z,16.50
2019-02-24T11:18:45.638Z,18.70
2019-02-24T11:19:45.629Z,22.20
2019-02-24T11:20:45.619Z,17.10
2019-02-24T11:21:45.608Z,20.29
2019-02-24T11:22:45.600Z,18.39
2019-02-24T11:23:45.587Z,20.79
2019-02-24T11:24:45.577Z,16.89
2019-02-24T11:25:45.568Z,16.29
2019-02-24T11:26:45.555Z,21.50
2019-02-24T11:27:45.543Z,18.39
2019-02-24T11:28:45.534Z,19.29
2019-02-24T11:29:45.521Z,21.39
2019-02-24T11:30:45.510Z,24.10
2019-02-24T11:31:45.498Z,23.79
2019-02-24T11:32:45.492Z,21.20
2019-02-24T11:33:45.481Z,17.39
2019-02-24T11:34:45.464Z,16.79
2019-02-24T11:35:45.464Z,25.50
2019-02-24T11:36:45.847Z,20.60
2019-02-24T11:37:45.432Z,27.60
2019-02-24T11:38:45.422Z,27.10
2019-02-24T11:39:45.409Z,22.29
2019-02-24T11:40:45.400Z,30.10
2019-02-24T11:41:45.399Z,22.39
2019-02-24T11:42:45.381Z,27.10
2019-02-24T11:43:45.366Z,23.20
2019-02-24T11:44:45.363Z,25.10
2019-02-24T11:45:45.345Z,21.10
2019-02-24T11:46:45.339Z,23.50
2019-02-24T11:47:45.325Z,24.20
2019-02-24T11:48:45.318Z,25.39
2019-02-24T11:49:45.303Z,22.60
2019-02-24T11:50:45.296Z,19.70
2019-02-24T11:51:45.280Z,20.60
2019-02-24T11:52:45.266Z,21.70
2019-02-24T11:53:45.256Z,27.20
2019-02-24T11:54:45.247Z,26.39
2019-02-24T11:55:45.241Z,25.79
2019-02-24T11:56:45.224Z,29.60
2019-02-24T11:57:45.213Z,23.00
2019-02-24T11:58:45.202Z,28.10
2019-02-24T11:59:45.191Z,24.89
2019-02-24T12:00:45.184Z,37.59
2019-02-24T12:01:47.505Z,31.60
2019-02-24T12:02:45.168Z,33.50
2019-02-24T12:03:45.150Z,39.50
2019-02-24T12:04:45.140Z,36.50
2019-02-24T12:05:45.170Z,37.29
2019-02-24T12:06:45.115Z,32.09
2019-02-24T12:07:45.105Z,34.90
2019-02-24T12:08:45.092Z,30.50
2019-02-24T12:09:45.084Z,34.90
2019-02-24T12:10:45.073Z,31.29
2019-02-24T12:11:45.060Z,24.00
2019-02-24T12:12:45.059Z,26.70
2019-02-24T12:13:45.038Z,31.00
2019-02-24T12:14:45.026Z,31.79
2019-02-24T12:15:45.026Z,29.50
2019-02-24T12:16:45.011Z,31.00
2019-02-24T12:17:45.000Z,29.20
2019-02-24T12:18:44.987Z,31.39
2019-02-24T12:19:44.977Z,25.50
2019-02-24T12:20:44.966Z,24.10
2019-02-24T12:21:44.957Z,28.70
2019-02-24T12:22:44.945Z,27.00
2019-02-24T12:23:44.938Z,28.29
2019-02-24T12:24:44.925Z,28.79
2019-02-24T12:25:44.913Z,38.90
2019-02-24T12:26:44.900Z,31.00
2019-02-24T12:27:44.889Z,23.29
2019-02-24T12:28:44.878Z,26.50
2019-02-24T12:29:44.870Z,24.29
2019-02-24T12:30:44.857Z,23.00
2019-02-24T12:31:44.846Z,26.10
2019-02-24T12:32:44.837Z,25.89
2019-02-24T12:33:44.822Z,28.00
2019-02-24T12:34:44.813Z,26.70
2019-02-24T12:35:44.802Z,28.60
2019-02-24T12:36:44.790Z,30.39
2019-02-24T12:37:44.881Z,32.20
2019-02-24T12:38:44.769Z,30.89
2019-02-24T12:39:44.756Z,47.79
2019-02-24T12:40:44.751Z,34.79
2019-02-24T12:41:44.737Z,30.60
2019-02-24T12:42:44.724Z,28.10
2019-02-24T12:43:44.717Z,29.79
2019-02-24T12:44:44.704Z,30.39
2019-02-24T12:45:44.691Z,29.60
2019-02-24T12:46:44.683Z,36.40
2019-02-24T12:47:44.670Z,40.50
2019-02-24T12:48:44.664Z,39.79
2019-02-24T12:49:44.651Z,36.00
2019-02-24T12:50:44.638Z,42.90
2019-02-24T12:51:44.627Z,43.20
2019-02-24T12:52:44.616Z,49.90
2019-02-24T12:53:44.607Z,53.29
2019-02-24T12:54:44.593Z,46.40
2019-02-24T12:55:44.585Z,46.09
2019-02-24T12:56:44.571Z,44.40
2019-02-24T12:57:44.570Z,57.40
2019-02-24T12:58:44.550Z,48.90
2019-02-24T12:59:44.540Z,48.09
2019-02-24T13:00:44.531Z,42.90
2019-02-24T13:01:44.520Z,44.09
2019-02-24T13:02:44.517Z,44.59
2019-02-24T13:03:44.499Z,54.79
2019-02-24T13:04:44.490Z,48.29
2019-02-24T13:05:44.478Z,47.29
2019-02-24T13:06:44.465Z,48.00
2019-02-24T13:07:44.456Z,49.29
2019-02-24T13:08:44.443Z,50.79
2019-02-24T13:09:44.784Z,57.00
2019-02-24T13:10:44.424Z,51.59
2019-02-24T13:11:44.415Z,57.90
2019-02-24T13:12:44.409Z,64.30
2019-02-24T13:13:44.394Z,53.59
2019-02-24T13:14:44.379Z,60.70
2019-02-24T13:15:44.368Z,43.20
2019-02-24T13:16:44.366Z,47.20
2019-02-24T13:17:44.353Z,62.40
2019-02-24T13:18:44.336Z,56.00
2019-02-24T13:19:44.324Z,44.00
2019-02-24T13:20:44.315Z,45.59
2019-02-24T13:21:44.309Z,41.09
2019-02-24T13:22:44.293Z,48.20
2019-02-24T13:23:44.280Z,54.09
2019-02-24T13:24:44.275Z,47.59
2019-02-24T13:25:44.261Z,54.79
2019-02-24T13:26:44.256Z,55.59
2019-02-24T13:27:44.240Z,54.29
2019-02-24T13:28:50.548Z,57.09